Time;durP1;ratioP1;P1;durP2;ratioP2;P2;SDS_P1;SDS_P2;PMS_P1;PMS_P2;Temp;Humidity;BMP_temperature;BMP_pressure;BME280_temperature;BME280_humidity;BME280_pressure;Samples;Min_cycle;Max_cycle;Signal;HPM_P1;HPM_P2
2022/06/10 00:01:42;;;;;;;6.30;1.73;;;;;;;-144.65;100.00;64500.88;5032153;28;20186;-76
2022/06/10 00:04:07;;;;;;;3.72;1.83;;;;;;;-144.65;100.00;64500.88;5050308;28;20461;-77
2022/06/10 00:06:32;;;;;;;3.58;1.83;;;;;;;-144.65;100.00;64500.88;5023394;28;20013;-77
2022/06/10 00:08:58;;;;;;;2.97;1.85;;;;;;;-144.65;100.00;64500.88;5040003;28;20111;-78
2022/06/10 00:11:23;;;;;;;2.05;1.60;;;;;;;-144.65;100.00;64500.88;5040834;28;20025;-76
2022/06/10 00:13:49;;;;;;;4.18;1.63;;;;;;;-144.65;100.00;64500.88;5038853;28;20061;-78
2022/06/10 00:16:17;;;;;;;3.38;1.58;;;;;;;-144.65;100.00;64500.88;5022385;28;20454;-78
2022/06/10 00:18:44;;;;;;;3.90;1.95;;;;;;;-144.65;100.00;64500.88;5040583;28;20041;-76
2022/06/10 00:21:12;;;;;;;3.10;2.00;;;;;;;-144.65;100.00;64500.88;5020252;28;20080;-78
2022/06/10 00:23:37;;;;;;;3.83;1.80;;;;;;;-144.65;100.00;64500.88;5039662;28;20029;-78
2022/06/10 00:26:04;;;;;;;2.53;2.00;;;;;;;-144.65;100.00;64500.88;5039047;28;20532;-78
2022/06/10 00:28:30;;;;;;;2.83;1.90;;;;;;;-144.65;100.00;64500.88;5040834;28;20072;-78
2022/06/10 00:30:55;;;;;;;4.10;1.75;;;;;;;-144.65;100.00;64500.88;5030703;28;20017;-80
2022/06/10 00:33:21;;;;;;;3.03;2.00;;;;;;;-144.65;100.00;64500.88;5038764;28;20039;-77
2022/06/10 00:35:48;;;;;;;4.07;2.20;;;;;;;-144.65;100.00;64500.88;5050247;28;20108;-78
2022/06/10 00:38:14;;;;;;;2.50;1.90;;;;;;;-144.65;100.00;64500.88;5040586;28;20470;-76
2022/06/10 00:40:46;;;;;;;2.50;2.00;;;;;;;-144.65;100.00;64500.88;5029836;28;20109;-75
2022/06/10 00:43:13;;;;;;;2.42;1.70;;;;;;;-144.65;100.00;64500.88;5012729;28;20029;-75
2022/06/10 00:46:06;;;;;;;3.85;2.08;;;;;;;-144.65;100.00;64500.88;5012602;28;20060;-75
2022/06/10 00:48:43;;;;;;;2.58;1.92;;;;;;;-144.65;100.00;64500.88;5030789;28;20060;-76
2022/06/10 00:51:26;;;;;;;3.78;1.80;;;;;;;-144.65;100.00;64500.88;5035040;28;20017;-75
2022/06/10 00:54:01;;;;;;;2.22;1.88;;;;;;;-144.65;100.00;64500.88;5032174;28;20549;-75
2022/06/10 00:56:28;;;;;;;3.33;2.03;;;;;;;-144.65;100.00;64500.88;5029992;28;20104;-75
2022/06/10 00:59:01;;;;;;;4.13;2.00;;;;;;;-144.65;100.00;64500.88;5030317;28;20864;-78
2022/06/10 01:01:30;;;;;;;2.22;1.77;;;;;;;-144.65;100.00;64500.88;5033272;28;20087;-76
2022/06/10 01:03:56;;;;;;;2.60;1.80;;;;;;;-144.65;100.00;64500.88;5015686;28;20032;-75
2022/06/10 01:06:21;;;;;;;2.65;1.73;;;;;;;-144.65;100.00;64500.88;5033390;28;20037;-76
2022/06/10 01:08:49;;;;;;;3.33;2.30;;;;;;;-144.65;100.00;64500.88;5033347;28;20129;-75
2022/06/10 01:12:05;;;;;;;2.88;1.88;;;;;;;-144.65;100.00;64500.88;5015935;28;20056;-75
2022/06/10 01:14:51;;;;;;;2.67;2.00;;;;;;;-144.65;100.00;64500.88;4971968;28;20396;-75
2022/06/10 01:17:38;;;;;;;3.25;2.20;;;;;;;-144.65;100.00;64500.88;4972104;28;20049;-75
2022/06/10 01:20:12;;;;;;;3.58;1.80;;;;;;;-144.65;100.00;64500.88;5017760;28;20049;-75
2022/06/10 01:22:58;;;;;;;2.47;1.85;;;;;;;-144.65;100.00;64500.88;5033217;28;20120;-75
2022/06/10 01:25:50;;;;;;;2.95;2.20;;;;;;;-144.65;100.00;64500.88;5033202;28;20017;-76
2022/06/10 01:28:33;;;;;;;2.80;1.80;;;;;;;-144.65;100.00;64500.88;5033014;28;20509;-75
2022/06/10 01:31:11;;;;;;;2.22;1.80;;;;;;;-144.65;100.00;64500.88;5015016;28;20036;-75
2022/06/10 01:33:44;;;;;;;3.10;2.08;;;;;;;-144.65;100.00;64500.88;5014988;28;20021;-75
2022/06/10 01:36:31;;;;;;;2.25;1.80;;;;;;;-144.65;100.00;64500.88;5032657;28;20096;-75
2022/06/10 01:39:02;;;;;;;1.95;1.60;;;;;;;-144.65;100.00;64500.88;5015214;28;20040;-76
2022/06/10 01:41:48;;;;;;;1.98;1.67;;;;;;;-144.65;100.00;64500.88;5015099;28;20079;-75
2022/06/10 01:44:45;;;;;;;1.80;1.65;;;;;;;-144.65;100.00;64500.88;5015064;28;20025;-76
2022/06/10 01:47:22;;;;;;;4.10;1.83;;;;;;;-144.65;100.00;64500.88;5014728;28;20033;-75
2022/06/10 01:50:00;;;;;;;1.60;1.50;;;;;;;-144.65;100.00;64500.88;5032272;28;20464;-76
2022/06/10 01:52:39;;;;;;;3.05;1.65;;;;;;;-144.65;100.00;64500.88;5032534;28;20494;-75
2022/06/10 01:55:21;;;;;;;2.80;2.03;;;;;;;-144.65;100.00;64500.88;5032468;28;20053;-75
2022/06/10 01:58:06;;;;;;;1.60;1.50;;;;;;;-144.65;100.00;64500.88;5014218;28;20037;-77
2022/06/10 02:00:35;;;;;;;2.63;1.70;;;;;;;-144.65;100.00;64500.88;5031965;28;20064;-75
2022/06/10 02:03:11;;;;;;;1.95;1.67;;;;;;;-144.65;100.00;64500.88;5014517;28;20459;-74
2022/06/10 02:05:41;;;;;;;4.97;1.70;;;;;;;-144.65;100.00;64500.88;5032190;28;20616;-76
2022/06/10 02:08:16;;;;;;;2.03;1.52;;;;;;;-144.65;100.00;64500.88;5032163;28;20025;-76
2022/06/10 02:10:53;;;;;;;2.63;2.00;;;;;;;-144.65;100.00;64500.88;5031426;28;20100;-76
2022/06/10 02:13:26;;;;;;;3.63;1.67;;;;;;;-144.65;100.00;64500.88;5015047;28;20034;-75
2022/06/10 02:15:54;;;;;;;1.83;1.50;;;;;;;-144.65;100.00;64500.88;5014387;28;20029;-75
2022/06/10 02:18:28;;;;;;;2.70;1.77;;;;;;;-144.65;100.00;64500.88;5032178;28;20032;-75
2022/06/10 02:21:00;;;;;;;2.60;1.60;;;;;;;-144.65;100.00;64500.88;5031775;28;20053;-76
2022/06/10 02:23:31;;;;;;;1.73;1.42;;;;;;;-144.65;100.00;64500.88;5014500;28;20026;-75
2022/06/10 02:25:59;;;;;;;1.65;1.50;;;;;;;-144.65;100.00;64500.88;5014133;28;20425;-76
2022/06/10 02:28:35;;;;;;;2.22;1.60;;;;;;;-144.65;100.00;64500.88;5034163;28;20041;-75
2022/06/10 02:31:11;;;;;;;1.75;1.45;;;;;;;-144.65;100.00;64500.88;5049077;28;20029;-75
2022/06/10 02:33:37;;;;;;;1.92;1.52;;;;;;;-144.65;100.00;64500.88;5044460;28;21076;-75
2022/06/10 02:36:03;;;;;;;2.42;1.75;;;;;;;-144.65;100.00;64500.88;5013645;28;20025;-75
2022/06/10 02:38:46;;;;;;;6.00;1.73;;;;;;;-144.65;100.00;64500.88;5031616;28;20079;-75
2022/06/10 02:41:31;;;;;;;3.83;1.73;;;;;;;-144.65;100.00;64500.88;5031143;28;20036;-76
2022/06/10 02:44:05;;;;;;;2.47;1.70;;;;;;;-144.65;100.00;64500.88;5013659;28;20064;-75
2022/06/10 02:46:36;;;;;;;4.37;2.00;;;;;;;-144.65;100.00;64500.88;5013519;28;20045;-75
2022/06/10 02:49:07;;;;;;;2.63;1.90;;;;;;;-144.65;100.00;64500.88;5030326;28;20076;-74
2022/06/10 02:51:33;;;;;;;3.30;1.80;;;;;;;-144.65;100.00;64500.88;5031391;28;20034;-75
2022/06/10 02:54:01;;;;;;;2.78;2.00;;;;;;;-144.65;100.00;64500.88;5030196;28;20471;-75
2022/06/10 02:56:28;;;;;;;3.10;2.10;;;;;;;-144.65;100.00;64500.88;5031779;28;20022;-75
2022/06/10 03:01:59;;;;;;;6.45;2.10;;;;;;;-144.65;100.00;64500.88;5055970;28;20043;-75
2022/06/10 03:04:39;;;;;;;3.22;1.95;;;;;;;-144.65;100.00;64500.88;5050565;28;20452;-76
2022/06/10 03:07:13;;;;;;;3.90;2.20;;;;;;;-144.65;100.00;64500.88;5041869;28;20589;-75
2022/06/10 03:09:50;;;;;;;5.37;2.20;;;;;;;-144.65;100.00;64500.88;5030724;28;20534;-75
2022/06/10 03:12:27;;;;;;;2.67;1.98;;;;;;;-144.65;100.00;64500.88;5048433;28;20124;-76
2022/06/10 03:15:18;;;;;;;3.60;2.40;;;;;;;-144.65;100.00;64500.88;5050638;28;20029;-77
2022/06/10 03:17:47;;;;;;;2.55;2.13;;;;;;;-144.65;100.00;64500.88;5049323;28;20029;-76
2022/06/10 03:20:19;;;;;;;5.00;2.10;;;;;;;-144.65;100.00;64500.88;5049845;28;20489;-78
2022/06/10 03:22:48;;;;;;;2.30;1.80;;;;;;;-144.65;100.00;64500.88;5047943;28;20036;-75
2022/06/10 03:25:31;;;;;;;5.60;2.20;;;;;;;-144.65;100.00;64500.88;5048269;28;20128;-76
2022/06/10 03:28:24;;;;;;;2.10;1.63;;;;;;;-144.65;100.00;64500.88;5049137;28;20445;-78
2022/06/10 03:30:51;;;;;;;3.55;1.80;;;;;;;-144.65;100.00;64500.88;5049116;28;20056;-76
2022/06/10 03:33:29;;;;;;;2.45;1.92;;;;;;;-144.65;100.00;64500.88;5049093;28;20025;-76
2022/06/10 03:36:06;;;;;;;3.00;1.80;;;;;;;-144.65;100.00;64500.88;5050143;28;20443;-75
2022/06/10 03:38:37;;;;;;;1.60;1.40;;;;;;;-144.65;100.00;64500.88;5036831;28;20792;-77
2022/06/10 03:41:02;;;;;;;3.80;1.70;;;;;;;-144.65;100.00;64500.88;5050061;28;20037;-75
2022/06/10 03:43:34;;;;;;;3.15;1.77;;;;;;;-144.65;100.00;64500.88;5042983;28;20135;-75
2022/06/10 03:46:03;;;;;;;2.45;1.70;;;;;;;-144.65;100.00;64500.88;5030394;28;20112;-75
2022/06/10 03:48:34;;;;;;;4.43;1.65;;;;;;;-144.65;100.00;64500.88;5030432;28;20082;-75
2022/06/10 03:51:00;;;;;;;1.75;1.40;;;;;;;-144.65;100.00;64500.88;5030405;28;20034;-77
2022/06/10 03:53:26;;;;;;;3.53;1.52;;;;;;;-144.65;100.00;64500.88;5012600;28;20057;-75
2022/06/10 03:55:52;;;;;;;1.95;1.50;;;;;;;-144.65;100.00;64500.88;5039089;28;20056;-76
2022/06/10 03:58:18;;;;;;;1.80;1.50;;;;;;;-144.65;100.00;64500.88;5049509;28;20017;-75
2022/06/10 04:00:45;;;;;;;1.75;1.40;;;;;;;-144.65;100.00;64500.88;5035885;28;20190;-76
2022/06/10 04:03:11;;;;;;;2.35;1.42;;;;;;;-144.65;100.00;64500.88;5048853;28;20029;-76
2022/06/10 04:05:37;;;;;;;4.18;1.40;;;;;;;-144.65;100.00;64500.88;5044348;28;20032;-76
2022/06/10 04:08:02;;;;;;;2.20;1.50;;;;;;;-144.65;100.00;64500.88;5031044;28;20033;-76
2022/06/10 04:10:29;;;;;;;2.30;1.58;;;;;;;-144.65;100.00;64500.88;5049093;28;20040;-76
2022/06/10 04:12:55;;;;;;;1.85;1.40;;;;;;;-144.65;100.00;64500.88;5050253;28;20025;-76
2022/06/10 04:15:24;;;;;;;1.77;1.50;;;;;;;-144.65;100.00;64500.88;5047722;28;20028;-75
2022/06/10 04:17:50;;;;;;;3.55;1.48;;;;;;;-144.65;100.00;64500.88;5017877;28;20032;-76
2022/06/10 04:20:36;;;;;;;1.50;1.33;;;;;;;-144.65;100.00;64500.88;5049376;28;20032;-76
2022/06/10 04:23:03;;;;;;;3.05;1.50;;;;;;;-144.65;100.00;64500.88;5049844;28;20017;-76
2022/06/10 04:25:29;;;;;;;2.65;1.33;;;;;;;-144.65;100.00;64500.88;5049786;28;20044;-76
2022/06/10 04:27:56;;;;;;;3.50;1.67;;;;;;;-144.65;100.00;64500.88;5049772;28;20060;-76
2022/06/10 04:30:28;;;;;;;3.45;1.63;;;;;;;-144.65;100.00;64500.88;5049908;28;20083;-76
2022/06/10 04:32:54;;;;;;;2.17;1.60;;;;;;;-144.65;100.00;64500.88;5049818;28;20099;-76
2022/06/10 04:35:21;;;;;;;2.05;1.55;;;;;;;-144.65;100.00;64500.88;5034590;28;20045;-75
2022/06/10 04:37:48;;;;;;;3.53;1.80;;;;;;;-144.65;100.00;64500.88;5036385;28;20034;-75
2022/06/10 04:40:19;;;;;;;2.22;1.60;;;;;;;-144.65;100.00;64500.88;5033220;28;20120;-76
2022/06/10 04:42:48;;;;;;;2.90;1.83;;;;;;;-144.65;100.00;64500.88;5019318;28;20471;-76
2022/06/10 04:45:16;;;;;;;4.65;1.50;;;;;;;-144.65;100.00;64500.88;5015562;28;20021;-75
2022/06/10 04:47:41;;;;;;;2.47;1.42;;;;;;;-144.65;100.00;64500.88;5016526;28;20051;-72
2022/06/10 04:50:10;;;;;;;2.83;1.40;;;;;;;-144.65;100.00;64500.88;5034026;28;20533;-70
2022/06/10 04:52:36;;;;;;;2.97;1.63;;;;;;;-144.65;100.00;64500.88;5036068;28;20433;-73
2022/06/10 04:55:03;;;;;;;1.90;1.40;;;;;;;-144.65;100.00;64500.88;5044608;28;20039;-72
2022/06/10 04:57:28;;;;;;;1.67;1.40;;;;;;;-144.65;100.00;64500.88;5053017;28;20116;-73
2022/06/10 04:59:54;;;;;;;2.30;1.50;;;;;;;-144.65;100.00;64500.88;5052498;28;20119;-74
2022/06/10 05:02:19;;;;;;;2.08;1.52;;;;;;;-144.65;100.00;64500.88;5049630;28;20044;-74
2022/06/10 05:04:45;;;;;;;2.00;1.58;;;;;;;-144.65;100.00;64500.88;5043075;28;20021;-72
2022/06/10 05:07:10;;;;;;;2.50;1.58;;;;;;;-144.65;100.00;64500.88;5036798;28;20083;-75
2022/06/10 05:09:35;;;;;;;2.13;1.60;;;;;;;-144.65;100.00;64500.88;5015616;28;20035;-75
2022/06/10 05:12:01;;;;;;;2.30;1.60;;;;;;;-144.65;100.00;64500.88;5034294;28;20033;-72
2022/06/10 05:14:26;;;;;;;1.75;1.50;;;;;;;-144.65;100.00;64500.88;5048086;28;20037;-73
2022/06/10 05:16:51;;;;;;;4.50;1.80;;;;;;;-144.65;100.00;64500.88;5052837;28;20493;-73
2022/06/10 05:19:17;;;;;;;2.97;1.58;;;;;;;-144.65;100.00;64500.88;5052712;28;20021;-75
2022/06/10 05:21:42;;;;;;;1.52;1.30;;;;;;;-144.65;100.00;64500.88;5053609;28;20061;-73
2022/06/10 05:24:08;;;;;;;5.15;1.50;;;;;;;-144.65;100.00;64500.88;5053192;28;20021;-72
2022/06/10 05:26:33;;;;;;;3.95;1.60;;;;;;;-144.65;100.00;64500.88;5034546;28;20478;-73
2022/06/10 05:29:02;;;;;;;2.03;1.40;;;;;;;-144.65;100.00;64500.88;5033838;28;20033;-72
2022/06/10 05:31:28;;;;;;;2.65;1.60;;;;;;;-144.65;100.00;64500.88;5014439;28;20087;-73
2022/06/10 05:36:37;;;;;;;3.58;1.60;;;;;;;-144.65;100.00;64500.88;5031328;28;20044;-72
2022/06/10 05:39:04;;;;;;;14.02;1.90;;;;;;;-144.65;100.00;64500.88;5012657;28;20410;-73
2022/06/10 05:44:14;;;;;;;3.58;1.60;;;;;;;-144.65;100.00;64500.88;5032596;28;20036;-72
2022/06/10 05:46:39;;;;;;;4.60;1.83;;;;;;;-144.65;100.00;64500.88;5029667;28;20025;-73
2022/06/10 05:49:04;;;;;;;3.65;1.67;;;;;;;-144.65;100.00;64500.88;5030791;28;20104;-73
2022/06/10 05:51:30;;;;;;;2.17;1.40;;;;;;;-144.65;100.00;64500.88;5031139;28;20026;-75
2022/06/10 05:53:55;;;;;;;3.00;1.70;;;;;;;-144.65;100.00;64500.88;5029008;28;20057;-73
2022/06/10 05:56:21;;;;;;;4.28;1.60;;;;;;;-144.65;100.00;64500.88;5013429;28;20105;-73
2022/06/10 05:58:46;;;;;;;5.50;1.50;;;;;;;-144.65;100.00;64500.88;5028658;28;20025;-73
2022/06/10 06:01:12;;;;;;;5.18;1.60;;;;;;;-144.65;100.00;64500.88;5030111;28;20029;-75
2022/06/10 06:03:37;;;;;;;2.88;1.55;;;;;;;-144.65;100.00;64500.88;5030303;28;20548;-73
2022/06/10 06:06:03;;;;;;;1.98;1.50;;;;;;;-144.65;100.00;64500.88;5030833;28;20018;-73
2022/06/10 06:08:28;;;;;;;3.80;2.08;;;;;;;-144.65;100.00;64500.88;5030788;28;20033;-73
2022/06/10 06:10:53;;;;;;;2.78;1.60;;;;;;;-144.65;100.00;64500.88;5030863;28;20028;-73
2022/06/10 06:13:19;;;;;;;2.88;1.60;;;;;;;-144.65;100.00;64500.88;5029185;28;20112;-73
2022/06/10 06:15:44;;;;;;;2.03;1.60;;;;;;;-144.65;100.00;64500.88;5030921;28;20498;-73
2022/06/10 06:18:10;;;;;;;1.88;1.50;;;;;;;-144.65;100.00;64500.88;5030920;28;20477;-72
2022/06/10 06:20:36;;;;;;;2.30;1.63;;;;;;;-144.65;100.00;64500.88;5030252;28;20394;-72
2022/06/10 06:23:01;;;;;;;3.42;1.85;;;;;;;-144.65;100.00;64500.88;5013071;28;20033;-72
2022/06/10 06:25:29;;;;;;;2.38;1.50;;;;;;;-144.65;100.00;64500.88;5029404;28;20047;-73
2022/06/10 06:27:55;;;;;;;2.85;1.60;;;;;;;-144.65;100.00;64500.88;5012692;28;20006;-73
2022/06/10 06:30:30;;;;;;;1.85;1.52;;;;;;;-144.65;100.00;64500.88;5030488;28;20410;-73
2022/06/10 06:32:57;;;;;;;2.10;1.50;;;;;;;-144.65;100.00;64500.88;5030752;28;20041;-73
2022/06/10 06:35:23;;;;;;;2.63;1.65;;;;;;;-144.65;100.00;64500.88;5030470;28;20038;-72
2022/06/10 06:37:48;;;;;;;3.58;1.40;;;;;;;-144.65;100.00;64500.88;5030656;28;20025;-72
2022/06/10 06:40:14;;;;;;;10.65;2.33;;;;;;;-144.65;100.00;64500.88;5045669;28;20067;-73
2022/06/10 06:42:39;;;;;;;2.50;1.60;;;;;;;-144.65;100.00;64500.88;5050804;28;20029;-73
2022/06/10 06:45:06;;;;;;;2.40;1.60;;;;;;;-144.65;100.00;64500.88;5049903;28;20459;-73
2022/06/10 06:47:31;;;;;;;2.78;1.55;;;;;;;-144.65;100.00;64500.88;5049992;28;20028;-73
2022/06/10 06:49:57;;;;;;;2.65;1.70;;;;;;;-144.65;100.00;64500.88;5050145;28;20091;-73
2022/06/10 06:52:22;;;;;;;3.17;2.45;;;;;;;-144.65;100.00;64500.88;5050238;28;20020;-73
2022/06/10 06:54:47;;;;;;;3.15;1.60;;;;;;;-144.65;100.00;64500.88;5032166;28;20024;-74
2022/06/10 06:57:13;;;;;;;3.85;1.60;;;;;;;-144.65;100.00;64500.88;5049728;28;20017;-73
2022/06/10 06:59:38;;;;;;;4.75;1.70;;;;;;;-144.65;100.00;64500.88;5050531;28;20516;-73
2022/06/10 07:02:04;;;;;;;3.08;1.90;;;;;;;-144.65;100.00;64500.88;5050440;28;20549;-73
2022/06/10 07:04:29;;;;;;;2.25;1.75;;;;;;;-144.65;100.00;64500.88;5050481;28;20036;-73
2022/06/10 07:06:55;;;;;;;3.40;1.63;;;;;;;-144.65;100.00;64500.88;5050618;28;20057;-73
2022/06/10 07:09:21;;;;;;;2.90;1.67;;;;;;;-144.65;100.00;64500.88;5032703;28;20025;-74
2022/06/10 07:11:46;;;;;;;2.67;1.90;;;;;;;-144.65;100.00;64500.88;5050358;28;20195;-73
2022/06/10 07:14:12;;;;;;;4.20;1.75;;;;;;;-144.65;100.00;64500.88;5032576;28;20478;-72
2022/06/10 07:16:38;;;;;;;3.50;1.98;;;;;;;-144.65;100.00;64500.88;5050532;28;20083;-73
2022/06/10 07:19:03;;;;;;;2.83;1.85;;;;;;;-144.65;100.00;64500.88;5050570;28;20036;-73
2022/06/10 07:21:28;;;;;;;3.17;1.70;;;;;;;-144.65;100.00;64500.88;5051268;28;20055;-73
2022/06/10 07:23:54;;;;;;;2.50;1.80;;;;;;;-144.65;100.00;64500.88;5016295;28;20093;-73
2022/06/10 07:26:19;;;;;;;2.45;1.70;;;;;;;-144.65;100.00;64500.88;5012934;28;20033;-73
2022/06/10 07:28:45;;;;;;;2.25;1.60;;;;;;;-144.65;100.00;64500.88;5030615;28;20066;-73
2022/06/10 07:31:11;;;;;;;2.88;1.90;;;;;;;-144.65;100.00;64500.88;5038639;28;20043;-75
2022/06/10 07:33:36;;;;;;;3.92;1.55;;;;;;;-144.65;100.00;64500.88;5050096;28;20542;-73
2022/06/10 07:36:05;;;;;;;3.20;2.03;;;;;;;-144.65;100.00;64500.88;5050166;28;20478;-73
2022/06/10 07:38:31;;;;;;;3.00;1.73;;;;;;;-144.65;100.00;64500.88;5050299;28;20400;-73
2022/06/10 07:43:42;;;;;;;4.78;1.77;;;;;;;-144.65;100.00;64500.88;5050240;28;20543;-73
2022/06/10 07:46:12;;;;;;;3.50;1.88;;;;;;;-144.65;100.00;64500.88;5049456;28;20017;-73
2022/06/10 07:48:38;;;;;;;3.53;1.88;;;;;;;-144.65;100.00;64500.88;5049773;28;20032;-72
2022/06/10 07:51:04;;;;;;;7.03;2.20;;;;;;;-144.65;100.00;64500.88;5032106;28;20028;-73
2022/06/10 07:53:30;;;;;;;3.88;1.85;;;;;;;-144.65;100.00;64500.88;5049880;28;20071;-73
2022/06/10 07:55:56;;;;;;;2.95;1.60;;;;;;;-144.65;100.00;64500.88;5046043;28;20025;-73
2022/06/10 07:58:24;;;;;;;2.28;1.63;;;;;;;-144.65;100.00;64500.88;5023156;28;20009;-72
2022/06/10 08:00:51;;;;;;;3.53;1.90;;;;;;;-144.65;100.00;64500.88;5039543;28;20505;-73
2022/06/10 08:03:17;;;;;;;2.65;1.80;;;;;;;-144.65;100.00;64500.88;5037160;28;20048;-73
2022/06/10 08:05:43;;;;;;;3.92;2.00;;;;;;;-144.65;100.00;64500.88;5038815;28;20018;-74
2022/06/10 08:08:15;;;;;;;4.80;1.83;;;;;;;-144.65;100.00;64500.88;5037611;28;20044;-73
2022/06/10 08:10:41;;;;;;;4.80;2.25;;;;;;;-144.65;100.00;64500.88;5041692;28;20112;-73
2022/06/10 08:13:07;;;;;;;3.30;2.00;;;;;;;-144.65;100.00;64500.88;5042260;28;20525;-73
2022/06/10 08:15:35;;;;;;;4.13;1.90;;;;;;;-144.65;100.00;64500.88;5025629;28;20025;-73
2022/06/10 08:18:02;;;;;;;5.80;2.60;;;;;;;-144.65;100.00;64500.88;5043614;28;20048;-71
2022/06/10 08:23:22;;;;;;;2.95;1.70;;;;;;;-144.65;100.00;64500.88;5044453;28;20041;-73
2022/06/10 08:25:48;;;;;;;6.03;1.88;;;;;;;-144.65;100.00;64500.88;5023791;28;20100;-72
2022/06/10 08:28:13;;;;;;;3.33;1.80;;;;;;;-144.65;100.00;64500.88;5039359;28;20022;-73
2022/06/10 08:30:39;;;;;;;2.88;1.70;;;;;;;-144.65;100.00;64500.88;5022182;28;20024;-72
2022/06/10 08:33:05;;;;;;;5.72;1.90;;;;;;;-144.65;100.00;64500.88;5042723;28;20095;-74
2022/06/10 08:35:31;;;;;;;2.65;1.60;;;;;;;-144.65;100.00;64500.88;5040651;28;20021;-72
2022/06/10 08:37:58;;;;;;;3.92;1.70;;;;;;;-144.65;100.00;64500.88;5024841;28;20402;-73
2022/06/10 08:40:39;;;;;;;5.38;1.73;;;;;;;-144.65;100.00;64500.88;5042212;28;20404;-73
2022/06/10 08:43:13;;;;;;;2.33;1.63;;;;;;;-144.65;100.00;64500.88;5024886;28;20397;-72
2022/06/10 08:45:47;;;;;;;2.45;1.85;;;;;;;-144.65;100.00;64500.88;5042446;28;20102;-73
2022/06/10 08:48:28;;;;;;;2.53;1.70;;;;;;;-144.65;100.00;64500.88;5045028;28;20032;-76
2022/06/10 08:51:11;;;;;;;3.63;1.60;;;;;;;-144.65;100.00;64500.88;5050214;28;20502;-73
2022/06/10 08:54:02;;;;;;;3.13;1.80;;;;;;;-144.65;100.00;64500.88;5039395;28;20040;-74
2022/06/10 08:56:33;;;;;;;2.13;1.58;;;;;;;-144.65;100.00;64500.88;5043501;28;20025;-73
2022/06/10 08:59:29;;;;;;;2.40;1.60;;;;;;;-144.65;100.00;64500.88;5034161;28;20420;-74
2022/06/10 09:02:05;;;;;;;1.85;1.50;;;;;;;-144.65;100.00;64500.88;5041297;28;20048;-74
2022/06/10 09:05:05;;;;;;;8.30;1.85;;;;;;;-144.65;100.00;64500.88;5044252;28;20029;-75
2022/06/10 09:07:41;;;;;;;2.17;1.60;;;;;;;-144.65;100.00;64500.88;5037618;28;20037;-73
2022/06/10 09:10:35;;;;;;;7.72;2.13;;;;;;;-144.65;100.00;64500.88;5045588;28;20442;-73
2022/06/10 09:13:11;;;;;;;1.73;1.30;;;;;;;-144.65;100.00;64500.88;5051180;28;20159;-73
2022/06/10 09:16:05;;;;;;;2.75;1.95;;;;;;;-144.65;100.00;64500.88;5052006;28;20440;-72
2022/06/10 09:18:46;;;;;;;1.60;1.48;;;;;;;-144.65;100.00;64500.88;5038941;28;20045;-72
2022/06/10 09:21:40;;;;;;;2.78;1.40;;;;;;;-144.65;100.00;64500.88;5049930;28;20098;-73
2022/06/10 09:24:34;;;;;;;2.67;1.58;;;;;;;-144.65;100.00;64500.88;5035738;28;20041;-72
2022/06/10 09:27:09;;;;;;;4.00;1.90;;;;;;;-144.65;100.00;64500.88;5034239;28;20546;-74
2022/06/10 09:29:38;;;;;;;;;;;;;;;-144.65;100.00;64500.88;5048195;28;20025;-72
2022/06/10 09:32:18;;;;;;;2.40;1.70;;;;;;;-144.65;100.00;64500.88;5052517;28;20366;-72
2022/06/10 09:34:58;;;;;;;4.65;1.80;;;;;;;-144.65;100.00;64500.88;5054928;28;20033;-72
2022/06/10 09:37:32;;;;;;;4.30;1.70;;;;;;;-144.65;100.00;64500.88;5051704;28;20036;-73
2022/06/10 09:42:50;;;;;;;1.77;1.38;;;;;;;-144.65;100.00;64500.88;5052483;28;20032;-72
2022/06/10 09:45:22;;;;;;;2.72;1.98;;;;;;;-144.65;100.00;64500.88;5051350;28;20029;-72
2022/06/10 09:47:52;;;;;;;3.78;1.60;;;;;;;-144.65;100.00;64500.88;5041867;28;20402;-72
2022/06/10 09:50:41;;;;;;;2.03;1.50;;;;;;;-144.65;100.00;64500.88;5052035;28;20028;-72
2022/06/10 09:53:07;;;;;;;2.08;1.65;;;;;;;-144.65;100.00;64500.88;5051734;28;20075;-73
2022/06/10 09:55:49;;;;;;;5.07;2.30;;;;;;;-144.65;100.00;64500.88;5051737;28;20439;-73
2022/06/10 09:58:36;;;;;;;2.25;1.52;;;;;;;-144.65;100.00;64500.88;5051174;28;20036;-72
2022/06/10 10:01:29;;;;;;;1.88;1.50;;;;;;;-144.65;100.00;64500.88;5050072;28;20040;-72
2022/06/10 10:04:19;;;;;;;2.08;1.45;;;;;;;-144.65;100.00;64500.88;5051571;28;20037;-72
2022/06/10 10:06:51;;;;;;;4.65;1.70;;;;;;;-144.65;100.00;64500.88;5043076;28;20036;-72
2022/06/10 10:09:50;;;;;;;6.38;1.60;;;;;;;-144.65;100.00;64500.88;5051963;28;20026;-72
2022/06/10 10:12:32;;;;;;;2.15;1.70;;;;;;;-144.65;100.00;64500.88;5050174;28;20486;-72
2022/06/10 10:15:19;;;;;;;2.80;1.70;;;;;;;-144.65;100.00;64500.88;5047336;28;20060;-72
2022/06/10 10:17:57;;;;;;;3.40;2.13;;;;;;;-144.65;100.00;64500.88;5051182;28;20029;-72
2022/06/10 10:21:02;;;;;;;4.45;2.75;;;;;;;-144.65;100.00;64500.88;5033983;28;20031;-73
2022/06/10 10:23:35;;;;;;;6.13;3.63;;;;;;;-144.65;100.00;64500.88;5041970;28;20494;-72
2022/06/10 10:26:05;;;;;;;8.13;4.47;;;;;;;-144.65;100.00;64500.88;5051302;28;20040;-72
2022/06/10 10:28:34;;;;;;;8.57;4.90;;;;;;;-144.65;100.00;64500.88;5050709;28;20143;-72
2022/06/10 10:31:04;;;;;;;6.93;3.92;;;;;;;-144.65;100.00;64500.88;5043047;28;20031;-72
2022/06/10 10:33:29;;;;;;;6.53;3.42;;;;;;;-144.65;100.00;64500.88;5050419;28;20032;-73
2022/06/10 10:35:57;;;;;;;6.75;3.97;;;;;;;-144.65;100.00;64500.88;5051226;28;20067;-72
2022/06/10 10:38:30;;;;;;;5.40;3.15;;;;;;;-144.65;100.00;64500.88;5050784;28;20502;-71
2022/06/10 10:40:56;;;;;;;4.00;2.83;;;;;;;-144.65;100.00;64500.88;5051067;28;20029;-72
2022/06/10 10:43:25;;;;;;;3.13;2.10;;;;;;;-144.65;100.00;64500.88;5051280;28;20120;-72
2022/06/10 10:45:58;;;;;;;3.38;1.90;;;;;;;-144.65;100.00;64500.88;5049923;28;20025;-73
2022/06/10 10:48:32;;;;;;;2.90;2.00;;;;;;;-144.65;100.00;64500.88;5050681;28;20032;-73
2022/06/10 10:51:09;;;;;;;2.60;1.95;;;;;;;-144.65;100.00;64500.88;5049501;28;20505;-71
2022/06/10 10:53:45;;;;;;;3.10;2.08;;;;;;;-144.65;100.00;64500.88;5050733;28;20032;-72
2022/06/10 10:56:14;;;;;;;2.63;1.80;;;;;;;-144.65;100.00;64500.88;5049554;28;20122;-71
2022/06/10 10:58:52;;;;;;;4.00;1.95;;;;;;;-144.65;100.00;64500.88;5050481;28;20035;-71
2022/06/10 11:01:47;;;;;;;2.72;1.77;;;;;;;-144.65;100.00;64500.88;5038487;28;20030;-71
2022/06/10 11:04:24;;;;;;;4.37;3.03;;;;;;;-144.65;100.00;64500.88;5030502;28;20026;-71
2022/06/10 11:07:03;;;;;;;3.25;2.17;;;;;;;-144.65;100.00;64500.88;5030445;28;20281;-73
2022/06/10 11:09:29;;;;;;;2.83;1.90;;;;;;;-144.65;100.00;64500.88;5012902;28;20781;-72
2022/06/10 11:11:57;;;;;;;3.15;2.38;;;;;;;-144.65;100.00;64500.88;5030087;28;20120;-73
2022/06/10 11:14:25;;;;;;;4.80;2.03;;;;;;;-144.65;100.00;64500.88;5038027;28;20021;-73
2022/06/10 11:17:14;;;;;;;3.50;1.77;;;;;;;-144.65;100.00;64500.88;5033793;28;20025;-72
2022/06/10 11:19:53;;;;;;;2.60;1.90;;;;;;;-144.65;100.00;64500.88;5030966;28;20032;-72
2022/06/10 11:22:26;;;;;;;3.70;2.33;;;;;;;-144.65;100.00;64500.88;5030864;28;20522;-72
2022/06/10 11:24:54;;;;;;;3.03;1.98;;;;;;;-144.65;100.00;64500.88;5030978;28;20025;-73
2022/06/10 11:27:27;;;;;;;4.00;2.35;;;;;;;-144.65;100.00;64500.88;5030858;28;20395;-73
2022/06/10 11:30:10;;;;;;;2.30;1.65;;;;;;;-144.65;100.00;64500.88;5013212;28;20025;-75
2022/06/10 11:32:47;;;;;;;3.33;1.80;;;;;;;-144.65;100.00;64500.88;5030684;28;20044;-73
2022/06/10 11:35:32;;;;;;;2.95;1.83;;;;;;;-144.65;100.00;64500.88;5030713;28;20037;-73
2022/06/10 11:38:09;;;;;;;5.32;2.05;;;;;;;-144.65;100.00;64500.88;5012656;28;20029;-73
2022/06/10 11:41:15;;;;;;;3.22;1.90;;;;;;;-144.65;100.00;64500.88;5014567;28;20061;-73
2022/06/10 11:43:46;;;;;;;3.03;1.98;;;;;;;-144.65;100.00;64500.88;5010215;28;20041;-72
2022/06/10 11:46:30;;;;;;;3.03;1.80;;;;;;;-144.65;100.00;64500.88;5033554;28;20064;-74
2022/06/10 11:49:11;;;;;;;2.47;1.60;;;;;;;-144.65;100.00;64500.88;5030802;28;20044;-74